createdAt,value
2022-11-06T00:01:18.413Z,13.77
2022-11-06T00:03:47.869Z,12.20
2022-11-06T00:06:36.374Z,11.98
2022-11-06T00:09:09.266Z,12.07
2022-11-06T00:11:43.116Z,12.05
2022-11-06T00:14:13.224Z,10.95
2022-11-06T00:16:45.983Z,12.40
2022-11-06T00:19:17.544Z,11.18
2022-11-06T00:21:47.487Z,12.02
2022-11-06T00:24:17.756Z,12.27
2022-11-06T00:26:53.093Z,11.80
2022-11-06T00:29:23.947Z,11.30
2022-11-06T00:31:54.771Z,10.50
2022-11-06T00:34:24.206Z,10.40
2022-11-06T00:36:53.705Z,11.45
2022-11-06T00:39:23.112Z,13.18
2022-11-06T00:41:52.549Z,11.45
2022-11-06T00:44:21.983Z,10.75
2022-11-06T00:46:51.440Z,11.27
2022-11-06T00:49:22.277Z,11.57
2022-11-06T00:51:51.676Z,11.55
2022-11-06T00:54:21.594Z,8.23
2022-11-06T00:56:51.326Z,11.13
2022-11-06T00:59:21.114Z,10.35
2022-11-06T01:01:51.045Z,10.05
2022-11-06T01:04:25.133Z,10.73
2022-11-06T01:06:57.626Z,10.15
2022-11-06T01:09:29.413Z,9.35
2022-11-06T01:12:16.410Z,8.77
2022-11-06T01:14:46.063Z,8.65
2022-11-06T01:17:15.938Z,8.88
2022-11-06T01:19:46.881Z,9.00
2022-11-06T01:22:16.914Z,8.82
2022-11-06T01:24:46.426Z,8.25
2022-11-06T01:27:31.337Z,7.63
2022-11-06T01:30:01.555Z,7.95
2022-11-06T01:32:30.968Z,7.35
2022-11-06T01:35:01.825Z,6.68
2022-11-06T01:37:31.248Z,8.40
2022-11-06T01:40:00.689Z,8.55
2022-11-06T01:42:30.289Z,8.07
2022-11-06T01:45:39.080Z,7.82
2022-11-06T01:48:08.785Z,7.93
2022-11-06T01:50:40.577Z,7.55
2022-11-06T01:53:10.293Z,8.25
2022-11-06T01:55:45.457Z,7.93
2022-11-06T01:58:19.532Z,7.22
2022-11-06T02:00:50.461Z,8.07
2022-11-06T02:03:20.607Z,7.13
2022-11-06T02:05:52.225Z,8.25
2022-11-06T02:08:23.561Z,7.90
2022-11-06T02:10:53.920Z,8.05
2022-11-06T02:13:41.931Z,8.60
2022-11-06T02:16:23.205Z,7.20
2022-11-06T02:19:21.812Z,7.45
2022-11-06T02:22:22.539Z,7.40
2022-11-06T02:25:22.276Z,7.47
2022-11-06T02:28:03.196Z,9.00
2022-11-06T02:30:38.863Z,8.20
2022-11-06T02:33:14.149Z,9.18
2022-11-06T02:35:48.202Z,8.93
2022-11-06T02:38:25.338Z,8.43
2022-11-06T02:40:59.436Z,9.80
2022-11-06T02:43:37.354Z,8.63
2022-11-06T02:46:13.829Z,9.77
2022-11-06T02:48:51.431Z,9.05
2022-11-06T02:51:26.951Z,8.68
2022-11-06T02:54:02.998Z,9.10
2022-11-06T02:56:39.411Z,9.07
2022-11-06T02:59:16.458Z,9.48
2022-11-06T03:01:51.258Z,7.90
2022-11-06T03:04:30.045Z,8.15
2022-11-06T03:07:07.135Z,7.55
2022-11-06T03:09:38.306Z,8.90
2022-11-06T03:12:26.174Z,8.52
2022-11-06T03:15:05.128Z,7.60
2022-11-06T03:17:44.164Z,6.80
2022-11-06T03:20:31.402Z,7.25
2022-11-06T03:23:14.487Z,7.15
2022-11-06T03:25:52.285Z,8.23
2022-11-06T03:28:31.839Z,7.30
2022-11-06T03:31:12.574Z,7.63
2022-11-06T03:33:51.042Z,7.10
2022-11-06T03:36:26.046Z,6.18
2022-11-06T03:39:01.346Z,6.22
2022-11-06T03:41:39.988Z,7.53
2022-11-06T03:44:14.924Z,6.93
2022-11-06T03:46:53.483Z,7.57
2022-11-06T03:49:30.906Z,5.93
2022-11-06T03:52:06.475Z,5.57
2022-11-06T03:54:42.640Z,6.03
2022-11-06T03:57:18.364Z,6.15
2022-11-06T03:59:55.734Z,6.50
2022-11-06T04:02:29.579Z,5.40
2022-11-06T04:05:05.719Z,6.18
2022-11-06T04:07:40.990Z,7.13
2022-11-06T04:10:30.342Z,6.38
2022-11-06T04:13:18.302Z,6.38
2022-11-06T04:15:54.110Z,5.82
2022-11-06T04:18:24.883Z,6.13
2022-11-06T04:21:25.838Z,6.18
2022-11-06T04:24:37.673Z,6.43
2022-11-06T04:27:27.967Z,6.13
2022-11-06T04:30:10.523Z,6.20
2022-11-06T04:33:02.916Z,6.13
2022-11-06T04:35:49.651Z,7.07
2022-11-06T04:38:29.418Z,7.82
2022-11-06T04:41:15.515Z,9.73
2022-11-06T04:43:50.287Z,9.38
2022-11-06T04:46:25.208Z,7.65
2022-11-06T04:48:55.450Z,8.30
2022-11-06T04:51:36.547Z,7.70
2022-11-06T04:54:10.453Z,7.18
2022-11-06T04:56:45.818Z,7.57
2022-11-06T04:59:19.323Z,8.20
2022-11-06T05:01:48.867Z,9.32
2022-11-06T05:04:18.576Z,7.47
2022-11-06T05:06:49.449Z,6.63
2022-11-06T05:09:19.155Z,7.03
2022-11-06T05:11:48.560Z,7.78
2022-11-06T05:14:18.390Z,8.10
2022-11-06T05:16:47.983Z,8.35
2022-11-06T05:19:17.614Z,6.93
2022-11-06T05:22:06.007Z,8.00
2022-11-06T05:24:35.687Z,11.30
2022-11-06T05:27:05.532Z,9.50
2022-11-06T05:29:35.155Z,7.03
2022-11-06T05:32:05.034Z,8.68
2022-11-06T05:34:35.051Z,10.73
2022-11-06T05:37:06.039Z,9.15
2022-11-06T05:39:41.409Z,6.40
2022-11-06T05:42:11.546Z,6.18
2022-11-06T05:44:41.231Z,4.90
2022-11-06T05:47:11.106Z,7.43
2022-11-06T05:49:40.692Z,9.32
2022-11-06T05:52:11.746Z,7.85
2022-11-06T05:54:41.554Z,8.25
2022-11-06T05:57:11.065Z,8.73
2022-11-06T05:59:40.599Z,10.55
2022-11-06T06:02:10.953Z,8.30
2022-11-06T06:04:40.870Z,10.90
2022-11-06T06:07:11.815Z,9.63
2022-11-06T06:09:41.415Z,10.55
2022-11-06T06:12:14.517Z,13.40
2022-11-06T06:15:38.980Z,10.55
2022-11-06T06:18:14.300Z,9.10
2022-11-06T06:20:47.278Z,7.25
2022-11-06T06:23:18.676Z,9.03
2022-11-06T06:25:48.258Z,9.38
2022-11-06T06:28:17.743Z,8.02
2022-11-06T06:31:12.936Z,7.53
2022-11-06T06:33:42.694Z,8.20
2022-11-06T06:36:12.456Z,7.45
2022-11-06T06:38:43.274Z,7.30
2022-11-06T06:41:12.687Z,7.70
2022-11-06T06:43:42.047Z,5.95
2022-11-06T06:46:11.973Z,7.75
2022-11-06T06:48:41.563Z,6.57
2022-11-06T06:51:11.064Z,7.57
2022-11-06T06:53:41.784Z,10.93
2022-11-06T06:56:11.546Z,5.30
2022-11-06T06:58:40.955Z,6.82
2022-11-06T07:01:11.671Z,8.77
2022-11-06T07:03:41.280Z,5.95
2022-11-06T07:06:10.717Z,5.32
2022-11-06T07:08:40.125Z,5.72
2022-11-06T07:11:12.798Z,7.60
2022-11-06T07:13:42.397Z,5.65
2022-11-06T07:16:12.928Z,5.88
2022-11-06T07:18:43.012Z,7.00
2022-11-06T07:21:14.837Z,6.78
2022-11-06T07:23:44.483Z,5.88
2022-11-06T07:26:15.527Z,5.80
2022-11-06T07:28:44.957Z,6.55
2022-11-06T07:31:14.829Z,7.18
2022-11-06T07:33:44.211Z,8.82
2022-11-06T07:36:15.174Z,7.45
2022-11-06T07:38:45.606Z,7.35
2022-11-06T07:41:17.046Z,7.68
2022-11-06T07:43:50.188Z,11.02
2022-11-06T07:46:19.619Z,10.55
2022-11-06T07:48:49.911Z,13.68
2022-11-06T07:51:19.407Z,12.77
2022-11-06T07:53:49.042Z,10.35
2022-11-06T07:56:20.063Z,9.40
2022-11-06T07:58:49.488Z,9.05
2022-11-06T08:01:19.675Z,9.95
2022-11-06T08:03:49.118Z,9.30
2022-11-06T08:06:18.645Z,10.05
2022-11-06T08:08:48.611Z,10.30
2022-11-06T08:11:19.786Z,11.50
2022-11-06T08:13:49.235Z,9.57
2022-11-06T08:16:18.737Z,8.27
2022-11-06T08:18:48.205Z,9.65
2022-11-06T08:21:17.615Z,11.45
2022-11-06T08:23:47.005Z,9.00
2022-11-06T08:26:17.182Z,8.65
2022-11-06T08:28:48.039Z,8.35
2022-11-06T08:31:17.543Z,8.07
2022-11-06T08:33:46.928Z,8.45
2022-11-06T08:36:16.947Z,7.47
2022-11-06T08:38:49.082Z,9.35
2022-11-06T08:41:20.562Z,8.13
2022-11-06T08:43:54.148Z,8.95
2022-11-06T08:46:23.687Z,9.27
2022-11-06T08:48:53.207Z,9.68
2022-11-06T08:51:22.809Z,9.88
2022-11-06T08:53:52.318Z,10.85
2022-11-06T08:56:21.798Z,11.05
2022-11-06T08:58:55.326Z,11.18
2022-11-06T09:01:26.839Z,10.80
2022-11-06T09:03:56.355Z,10.40
2022-11-06T09:06:26.889Z,10.50
2022-11-06T09:08:57.516Z,11.20
2022-11-06T09:11:27.000Z,10.88
2022-11-06T09:13:56.429Z,10.60
2022-11-06T09:16:27.381Z,9.55
2022-11-06T09:18:56.992Z,10.77
2022-11-06T09:21:26.607Z,12.13
2022-11-06T09:23:56.047Z,10.88
2022-11-06T09:26:25.714Z,11.07
2022-11-06T09:28:55.073Z,10.90
2022-11-06T09:31:25.808Z,10.65
2022-11-06T09:33:55.875Z,11.50
2022-11-06T09:36:25.512Z,10.77
2022-11-06T09:38:54.895Z,11.88
2022-11-06T09:41:36.880Z,10.93
2022-11-06T09:44:27.091Z,11.63
2022-11-06T09:47:01.745Z,11.77
2022-11-06T09:49:37.161Z,10.18
2022-11-06T09:52:13.387Z,10.65
2022-11-06T09:54:53.354Z,10.50
2022-11-06T09:57:36.047Z,10.73
2022-11-06T10:00:08.742Z,11.60
2022-11-06T10:02:48.695Z,9.35
2022-11-06T10:05:27.087Z,8.27
2022-11-06T10:07:59.469Z,8.82
2022-11-06T10:10:40.664Z,8.73
2022-11-06T10:13:46.096Z,9.07
2022-11-06T10:16:27.967Z,8.43
2022-11-06T10:19:12.977Z,9.35
2022-11-06T10:21:52.077Z,9.20
2022-11-06T10:24:25.238Z,9.32
2022-11-06T10:26:58.453Z,9.18
2022-11-06T10:33:12.772Z,8.88
2022-11-06T10:35:51.341Z,9.32
2022-11-06T10:38:26.314Z,8.80
2022-11-06T10:40:57.332Z,8.50
2022-11-06T10:43:33.413Z,7.85
2022-11-06T10:46:14.246Z,7.90
2022-11-06T10:48:51.030Z,7.72
2022-11-06T10:52:00.234Z,6.97
2022-11-06T10:54:50.398Z,6.97
2022-11-06T10:57:36.907Z,6.63
2022-11-06T11:00:13.131Z,6.30
2022-11-06T11:02:48.349Z,4.80
2022-11-06T11:05:21.594Z,4.90
2022-11-06T11:10:32.684Z,6.35
2022-11-06T11:13:08.692Z,6.03
2022-11-06T11:15:50.212Z,6.22
2022-11-06T11:18:30.928Z,5.85
2022-11-06T11:21:21.379Z,5.57
2022-11-06T11:24:09.870Z,4.70
2022-11-06T11:26:44.556Z,5.22
2022-11-06T11:29:19.219Z,5.65
2022-11-06T11:31:53.952Z,5.10
2022-11-06T11:34:26.788Z,5.57
2022-11-06T11:37:01.107Z,4.22
2022-11-06T11:39:34.931Z,4.45
2022-11-06T11:42:28.423Z,4.45
2022-11-06T11:45:20.598Z,4.97
2022-11-06T11:47:52.235Z,4.18
2022-11-06T11:50:31.474Z,5.13
2022-11-06T11:53:12.058Z,4.20
2022-11-06T11:55:48.095Z,4.63
2022-11-06T11:58:23.285Z,3.88
2022-11-06T12:00:58.562Z,3.67
2022-11-06T12:03:34.391Z,3.67
2022-11-06T12:06:11.321Z,3.47
2022-11-06T12:08:49.179Z,4.13
2022-11-06T12:11:26.238Z,3.60
2022-11-06T12:14:37.577Z,3.22
2022-11-06T12:17:17.394Z,3.55
2022-11-06T12:19:53.419Z,5.05
2022-11-06T12:22:29.941Z,5.22
2022-11-06T12:25:10.614Z,4.50
2022-11-06T12:27:46.504Z,4.40
2022-11-06T12:30:22.271Z,4.55
2022-11-06T12:33:05.360Z,4.85
2022-11-06T12:35:42.793Z,4.47
2022-11-06T12:38:25.491Z,3.70
2022-11-06T12:41:02.670Z,3.40
2022-11-06T12:43:42.007Z,3.20
2022-11-06T12:46:27.817Z,2.42
2022-11-06T12:49:37.077Z,2.50
2022-11-06T12:52:25.971Z,1.98
2022-11-06T12:55:20.647Z,2.72
2022-11-06T12:58:41.597Z,2.65
2022-11-06T13:01:21.686Z,2.00
2022-11-06T13:04:15.371Z,2.75
2022-11-06T13:07:41.782Z,2.53
2022-11-06T13:10:34.624Z,2.65
2022-11-06T13:13:29.303Z,2.77
2022-11-06T13:16:14.732Z,3.00
2022-11-06T13:18:53.191Z,2.45
2022-11-06T13:21:33.537Z,2.47
2022-11-06T13:24:08.875Z,2.75
2022-11-06T13:26:44.763Z,2.65
2022-11-06T13:29:18.689Z,2.47
2022-11-06T13:31:57.651Z,2.17
2022-11-06T13:34:32.963Z,2.40
2022-11-06T13:37:02.920Z,2.30
2022-11-06T13:39:38.647Z,2.60
2022-11-06T13:42:24.848Z,3.15
2022-11-06T13:44:55.694Z,2.15
2022-11-06T13:47:36.734Z,2.40
2022-11-06T13:50:17.875Z,2.40
2022-11-06T13:53:02.360Z,2.30
2022-11-06T13:56:00.081Z,2.08
2022-11-06T13:59:08.868Z,2.20
2022-11-06T14:01:59.344Z,2.47
2022-11-06T14:04:58.935Z,1.90
2022-11-06T14:07:31.933Z,1.88
2022-11-06T14:12:30.823Z,1.88
2022-11-06T14:15:24.683Z,1.83
2022-11-06T14:17:58.441Z,1.70
2022-11-06T14:20:35.277Z,2.00
2022-11-06T14:23:52.441Z,2.08
2022-11-06T14:26:42.466Z,1.83
2022-11-06T14:30:05.163Z,2.40
2022-11-06T14:32:48.238Z,2.47
2022-11-06T14:36:13.809Z,2.15
2022-11-06T14:38:43.605Z,2.30
2022-11-06T14:41:59.587Z,2.20
2022-11-06T14:44:51.611Z,2.28
2022-11-06T14:47:35.996Z,2.80
2022-11-06T14:50:24.602Z,2.50
2022-11-06T14:53:01.711Z,1.77
2022-11-06T14:55:36.046Z,2.17
2022-11-06T14:58:20.710Z,2.00
2022-11-06T15:00:55.018Z,2.35
2022-11-06T15:03:33.448Z,2.20
2022-11-06T15:06:21.895Z,2.28
2022-11-06T15:09:06.051Z,2.08
2022-11-06T15:12:00.248Z,2.25
2022-11-06T15:14:57.044Z,2.03
2022-11-06T15:17:36.481Z,3.03
2022-11-06T15:20:28.221Z,2.55
2022-11-06T15:23:18.541Z,2.20
2022-11-06T15:26:02.021Z,2.50
2022-11-06T15:28:42.936Z,2.17
2022-11-06T15:31:18.092Z,2.15
2022-11-06T15:33:59.160Z,2.28
2022-11-06T15:36:33.921Z,2.60
2022-11-06T15:39:24.319Z,2.53
2022-11-06T15:41:55.160Z,2.38
2022-11-06T15:44:26.369Z,2.42
2022-11-06T15:46:58.005Z,2.97
2022-11-06T15:49:27.831Z,2.95
2022-11-06T15:52:00.693Z,2.47
2022-11-06T15:54:37.452Z,2.85
2022-11-06T15:57:19.507Z,2.80
2022-11-06T15:59:48.978Z,2.92
2022-11-06T16:02:22.760Z,3.20
2022-11-06T16:04:53.518Z,3.42
2022-11-06T16:07:23.900Z,3.50
2022-11-06T16:09:53.615Z,3.70
2022-11-06T16:12:24.668Z,4.05
2022-11-06T16:14:54.453Z,4.20
2022-11-06T16:17:27.161Z,3.78
2022-11-06T16:20:02.581Z,4.32
2022-11-06T16:22:35.095Z,4.97
2022-11-06T16:25:08.129Z,5.38
2022-11-06T16:27:41.884Z,4.90
2022-11-06T16:30:25.292Z,5.80
2022-11-06T16:32:55.307Z,5.88
2022-11-06T16:35:33.595Z,6.10
2022-11-06T16:38:42.239Z,5.90
2022-11-06T16:41:31.715Z,5.18
2022-11-06T16:44:31.313Z,5.53
2022-11-06T16:47:19.700Z,6.68
2022-11-06T16:49:53.860Z,8.63
2022-11-06T16:52:28.955Z,8.55
2022-11-06T16:55:03.299Z,8.40
2022-11-06T16:57:37.190Z,8.02
2022-11-06T17:00:23.807Z,6.93
2022-11-06T17:02:57.730Z,5.45
2022-11-06T17:05:30.119Z,6.40
2022-11-06T17:08:23.897Z,6.00
2022-11-06T17:13:29.365Z,4.47
2022-11-06T17:16:02.483Z,5.03
2022-11-06T17:18:35.804Z,4.70
2022-11-06T17:21:08.892Z,4.75
2022-11-06T17:23:38.896Z,4.70
2022-11-06T17:26:15.111Z,4.32
2022-11-06T17:28:44.519Z,5.07
2022-11-06T17:31:20.200Z,4.40
2022-11-06T17:33:49.817Z,5.63
2022-11-06T17:36:22.709Z,5.85
2022-11-06T17:38:53.230Z,6.50
2022-11-06T17:41:30.569Z,7.60
2022-11-06T17:44:02.653Z,6.35
2022-11-06T17:46:36.815Z,7.22
2022-11-06T17:49:06.377Z,7.15
2022-11-06T17:51:53.240Z,6.88
2022-11-06T17:54:26.730Z,7.47
2022-11-06T17:59:26.774Z,7.63
2022-11-06T18:01:58.291Z,7.18
2022-11-06T18:04:31.276Z,7.63
2022-11-06T18:07:01.145Z,7.63
2022-11-06T18:09:30.825Z,9.30
2022-11-06T18:12:00.411Z,8.15
2022-11-06T18:14:29.906Z,8.77
2022-11-06T18:17:01.034Z,8.07
2022-11-06T18:19:30.433Z,8.60
2022-11-06T18:22:05.368Z,8.63
2022-11-06T18:24:38.595Z,9.10
2022-11-06T18:27:08.089Z,7.75
2022-11-06T18:29:37.443Z,9.27
2022-11-06T18:32:08.363Z,9.68
2022-11-06T18:34:37.767Z,7.82
2022-11-06T18:37:07.183Z,9.63
2022-11-06T18:39:36.575Z,9.02
2022-11-06T18:42:06.056Z,13.52
2022-11-06T18:44:40.443Z,13.05
2022-11-06T18:47:11.411Z,13.48
2022-11-06T18:49:40.896Z,12.90
2022-11-06T18:52:10.511Z,8.60
2022-11-06T18:54:40.702Z,8.27
2022-11-06T18:57:10.344Z,7.18
2022-11-06T18:59:39.794Z,6.07
2022-11-06T19:02:11.300Z,6.93
2022-11-06T19:04:40.949Z,6.13
2022-11-06T19:07:10.350Z,5.10
2022-11-06T19:09:39.743Z,6.03
2022-11-06T19:12:09.747Z,5.40
2022-11-06T19:14:39.143Z,5.38
2022-11-06T19:17:09.888Z,5.93
2022-11-06T19:19:39.288Z,5.38
2022-11-06T19:22:10.573Z,5.32
2022-11-06T19:24:40.101Z,5.32
2022-11-06T19:27:11.635Z,6.75
2022-11-06T19:29:41.074Z,6.55
2022-11-06T19:32:11.925Z,5.82
2022-11-06T19:34:41.713Z,6.72
2022-11-06T19:37:11.101Z,6.93
2022-11-06T19:39:40.924Z,6.97
2022-11-06T19:42:10.300Z,7.30
2022-11-06T19:44:39.683Z,6.57
2022-11-06T19:47:09.135Z,6.88
2022-11-06T19:49:39.927Z,6.07
2022-11-06T19:52:42.441Z,7.13
2022-11-06T19:55:24.928Z,8.02
2022-11-06T19:57:49.275Z,6.90
2022-11-06T20:00:19.214Z,6.72
2022-11-06T20:02:50.820Z,6.00
2022-11-06T20:05:21.879Z,7.22
2022-11-06T20:07:51.440Z,7.75
2022-11-06T20:10:20.817Z,6.80
2022-11-06T20:12:50.262Z,7.28
2022-11-06T20:15:23.802Z,7.10
2022-11-06T20:17:53.831Z,7.25
2022-11-06T20:20:25.256Z,7.10
2022-11-06T20:22:54.752Z,6.38
2022-11-06T20:25:24.155Z,8.65
2022-11-06T20:27:53.655Z,7.65
2022-11-06T20:30:23.283Z,7.07
2022-11-06T20:32:52.707Z,7.65
2022-11-06T20:35:22.149Z,7.63
2022-11-06T20:37:52.960Z,8.40
2022-11-06T20:40:22.996Z,7.97
2022-11-06T20:42:52.436Z,9.18
2022-11-06T20:45:22.065Z,8.70
2022-11-06T20:47:51.509Z,7.85
2022-11-06T20:50:21.030Z,7.18
2022-11-06T20:52:51.808Z,5.93
2022-11-06T20:55:21.231Z,6.25
2022-11-06T20:57:50.605Z,6.68
2022-11-06T21:00:23.592Z,5.43
2022-11-06T21:02:57.536Z,5.50
2022-11-06T21:05:29.956Z,5.20
2022-11-06T21:08:00.710Z,5.10
2022-11-06T21:10:30.117Z,5.65
2022-11-06T21:13:00.183Z,5.13
2022-11-06T21:15:29.574Z,4.95
2022-11-06T21:17:59.073Z,4.65
2022-11-06T21:20:28.470Z,4.07
2022-11-06T21:22:57.936Z,3.70
2022-11-06T21:25:28.663Z,4.00
2022-11-06T21:27:58.383Z,3.70
2022-11-06T21:30:27.784Z,3.65
2022-11-06T21:32:57.180Z,3.20
2022-11-06T21:35:26.577Z,3.47
2022-11-06T21:37:55.982Z,3.05
2022-11-06T21:40:26.594Z,3.70
2022-11-06T21:42:57.407Z,3.38
2022-11-06T21:45:27.306Z,1.92
2022-11-06T21:47:56.704Z,2.15
2022-11-06T21:50:29.920Z,2.00
2022-11-06T21:53:17.163Z,1.98
2022-11-06T21:56:02.567Z,2.00
2022-11-06T21:58:33.493Z,1.60
2022-11-06T22:01:04.950Z,1.77
2022-11-06T22:03:34.956Z,1.63
2022-11-06T22:06:10.297Z,1.45
2022-11-06T22:08:42.006Z,1.40
2022-11-06T22:11:18.044Z,1.20
2022-11-06T22:13:51.845Z,1.27
2022-11-06T22:16:24.919Z,1.10
2022-11-06T22:18:54.513Z,1.00
2022-11-06T22:21:26.871Z,1.13
2022-11-06T22:23:56.810Z,1.20
2022-11-06T22:26:30.070Z,0.90
2022-11-06T22:31:32.064Z,1.23
2022-11-06T22:34:01.621Z,1.38
2022-11-06T22:36:31.185Z,1.52
2022-11-06T22:39:05.319Z,2.10
2022-11-06T22:41:34.859Z,1.55
2022-11-06T22:44:07.323Z,1.15
2022-11-06T22:46:37.028Z,1.13
2022-11-06T22:49:07.159Z,1.30
2022-11-06T22:51:36.995Z,1.27
2022-11-06T22:54:07.049Z,1.23
2022-11-06T22:56:36.616Z,1.40
2022-11-06T22:59:09.587Z,1.27
2022-11-06T23:01:42.763Z,1.52
2022-11-06T23:04:15.793Z,1.60
2022-11-06T23:06:46.533Z,1.75
2022-11-06T23:09:16.304Z,1.50
2022-11-06T23:11:47.805Z,1.40
2022-11-06T23:14:18.571Z,1.65
2022-11-06T23:17:00.746Z,1.70
2022-11-06T23:19:32.925Z,2.15
2022-11-06T23:22:19.884Z,1.63
2022-11-06T23:24:49.337Z,1.83
2022-11-06T23:27:20.577Z,1.70
2022-11-06T23:29:51.357Z,2.03
2022-11-06T23:32:20.800Z,1.77
2022-11-06T23:34:51.811Z,1.35
2022-11-06T23:37:21.314Z,1.27
2022-11-06T23:39:50.808Z,1.30
2022-11-06T23:42:23.399Z,1.40
2022-11-06T23:45:11.709Z,1.48
2022-11-06T23:47:41.121Z,1.30
2022-11-06T23:50:11.136Z,1.23
2022-11-06T23:52:40.632Z,1.27
2022-11-06T23:55:10.875Z,1.33
2022-11-06T23:57:40.351Z,0.98
